Time;durP1;ratioP1;P1;durP2;ratioP2;P2;SDS_P1;SDS_P2;PMS_P1;PMS_P2;Temp;Humidity;BMP_temperature;BMP_pressure;BME280_temperature;BME280_humidity;BME280_pressure;Samples;Min_cycle;Max_cycle;Signal;HPM_P1;HPM_P2
2024/01/29 00:02:16;;;;;;;17.55;10.05;;;-1.60;99.90;;;;;;5054205;28;20051;-64
2024/01/29 00:04:44;;;;;;;13.75;9.60;;;-1.60;99.90;;;;;;5054437;28;20110;-64
2024/01/29 00:07:15;;;;;;;13.18;9.68;;;-1.60;99.90;;;;;;5065836;28;20041;-64
2024/01/29 00:09:47;;;;;;;13.70;9.98;;;-1.60;99.90;;;;;;5054510;28;20418;-64
2024/01/29 00:12:19;;;;;;;12.85;9.60;;;-1.70;99.90;;;;;;5063849;28;20045;-64
2024/01/29 00:14:46;;;;;;;13.35;9.05;;;-1.70;99.90;;;;;;5066256;28;20133;-64
2024/01/29 00:17:13;;;;;;;14.98;9.77;;;-1.70;99.90;;;;;;5062956;28;20033;-63
2024/01/29 00:19:45;;;;;;;13.73;9.88;;;-1.70;99.90;;;;;;5062467;28;20041;-64
2024/01/29 00:22:12;;;;;;;15.13;9.63;;;-1.70;99.90;;;;;;5062231;28;20071;-64
2024/01/29 00:24:38;;;;;;;11.73;8.90;;;-1.70;99.90;;;;;;5068719;28;20049;-65
2024/01/29 00:27:10;;;;;;;14.73;9.65;;;-1.70;99.90;;;;;;5054437;28;20457;-64
2024/01/29 00:29:42;;;;;;;12.82;9.95;;;-1.70;99.90;;;;;;5057997;28;20048;-64
2024/01/29 00:32:09;;;;;;;14.25;8.88;;;-1.70;99.90;;;;;;5057281;28;20099;-64
2024/01/29 00:34:41;;;;;;;15.55;10.38;;;-1.70;99.90;;;;;;5042542;28;20048;-63
2024/01/29 00:37:13;;;;;;;11.73;9.05;;;-1.70;99.90;;;;;;5067868;28;20040;-63
2024/01/29 00:39:44;;;;;;;13.82;9.90;;;-1.70;99.90;;;;;;5064825;28;20044;-63
2024/01/29 00:42:16;;;;;;;18.73;10.15;;;-1.80;99.90;;;;;;5065933;28;20331;-63
2024/01/29 00:44:49;;;;;;;14.70;10.05;;;-1.80;99.90;;;;;;5062333;28;20049;-63
2024/01/29 00:47:22;;;;;;;11.68;7.95;;;-1.80;99.90;;;;;;5064700;28;20040;-63
2024/01/29 00:49:49;;;;;;;14.07;9.82;;;-1.80;99.90;;;;;;5064632;28;20051;-63
2024/01/29 00:52:16;;;;;;;15.80;9.68;;;-1.80;99.90;;;;;;5071450;28;20036;-63
2024/01/29 00:54:47;;;;;;;16.20;10.23;;;-1.80;99.90;;;;;;5065683;28;20230;-63
2024/01/29 00:57:20;;;;;;;14.90;9.43;;;-1.90;99.90;;;;;;5055562;28;20048;-63
2024/01/29 00:59:51;;;;;;;15.95;10.27;;;-1.90;99.90;;;;;;5055665;28;20105;-63
2024/01/29 01:02:23;;;;;;;15.02;9.15;;;-1.90;99.90;;;;;;5056302;28;20051;-63
2024/01/29 01:04:55;;;;;;;13.98;9.10;;;-1.90;99.90;;;;;;5060738;28;20047;-63
2024/01/29 01:07:28;;;;;;;17.77;10.38;;;-1.90;99.90;;;;;;5057437;28;20048;-63
2024/01/29 01:10:00;;;;;;;12.23;9.67;;;-2.00;99.90;;;;;;5062019;28;20435;-63
2024/01/29 01:12:31;;;;;;;18.90;10.23;;;-2.00;99.90;;;;;;5060870;28;20058;-63
2024/01/29 01:15:04;;;;;;;14.38;9.45;;;-2.00;99.90;;;;;;5060604;28;20049;-63
2024/01/29 01:17:35;;;;;;;13.90;9.10;;;-2.00;99.90;;;;;;5054489;28;20041;-63
2024/01/29 01:20:08;;;;;;;14.10;9.55;;;-2.00;99.90;;;;;;5056904;28;20076;-63
2024/01/29 01:22:40;;;;;;;17.50;10.70;;;-2.00;99.90;;;;;;5061734;28;20584;-63
2024/01/29 01:25:12;;;;;;;15.43;9.40;;;-2.10;99.90;;;;;;5062514;28;20044;-63
2024/01/29 01:27:44;;;;;;;13.02;9.50;;;-2.10;99.90;;;;;;5070167;28;20040;-63
2024/01/29 01:30:16;;;;;;;12.70;8.35;;;-2.10;99.90;;;;;;5069075;28;20128;-63
2024/01/29 01:32:48;;;;;;;12.63;8.32;;;-2.10;99.90;;;;;;5047347;28;20037;-63
2024/01/29 01:35:20;;;;;;;14.00;8.65;;;-2.10;99.90;;;;;;5063247;28;20064;-63
2024/01/29 01:37:52;;;;;;;12.25;8.75;;;-2.10;99.90;;;;;;5058136;28;20049;-63
2024/01/29 01:40:24;;;;;;;13.48;8.57;;;-2.20;99.90;;;;;;5060816;28;20059;-63
2024/01/29 01:42:56;;;;;;;12.68;7.88;;;-2.20;99.90;;;;;;5070637;28;20052;-63
2024/01/29 01:45:28;;;;;;;13.52;8.15;;;-2.20;99.90;;;;;;5066379;28;20067;-63
2024/01/29 01:48:00;;;;;;;12.90;8.85;;;-2.20;99.90;;;;;;5073035;28;20071;-63
2024/01/29 01:50:32;;;;;;;14.85;9.07;;;-2.20;99.90;;;;;;5072418;28;20054;-63
2024/01/29 01:53:04;;;;;;;11.38;7.72;;;-2.20;99.90;;;;;;5063831;28;20205;-63
2024/01/29 01:55:36;;;;;;;12.23;8.15;;;-2.30;99.90;;;;;;5057984;28;20037;-63
2024/01/29 01:58:10;;;;;;;11.07;8.30;;;-2.30;99.90;;;;;;5061987;28;20502;-63
2024/01/29 02:00:41;;;;;;;12.98;8.00;;;-2.30;99.90;;;;;;5063510;28;20041;-63
2024/01/29 02:03:13;;;;;;;12.02;8.00;;;-2.30;99.90;;;;;;5065212;28;20043;-63
2024/01/29 02:05:45;;;;;;;12.80;8.27;;;-2.30;99.90;;;;;;5066754;28;20045;-63
2024/01/29 02:08:18;;;;;;;11.60;8.23;;;-2.30;99.90;;;;;;5062772;28;20045;-63
2024/01/29 02:10:52;;;;;;;12.73;8.00;;;-2.30;99.90;;;;;;5055013;28;20138;-63
2024/01/29 02:13:24;;;;;;;11.05;7.35;;;-2.30;99.90;;;;;;5052463;28;20046;-63
2024/01/29 02:15:56;;;;;;;11.20;7.70;;;-2.30;99.90;;;;;;5054539;28;20045;-64
2024/01/29 02:18:22;;;;;;;13.18;7.95;;;-2.30;99.90;;;;;;5056175;28;20041;-63
2024/01/29 02:20:55;;;;;;;13.43;7.80;;;-2.30;99.90;;;;;;5068871;28;20125;-63
2024/01/29 02:23:26;;;;;;;12.18;7.75;;;-2.40;99.90;;;;;;5065491;28;20052;-63
2024/01/29 02:25:58;;;;;;;11.43;8.30;;;-2.40;99.90;;;;;;5062414;28;20051;-63
2024/01/29 02:28:27;;;;;;;10.65;8.02;;;-2.40;99.90;;;;;;5062665;28;20107;-63
2024/01/29 02:30:59;;;;;;;12.02;7.35;;;-2.40;99.90;;;;;;5064829;28;20495;-63
2024/01/29 02:33:26;;;;;;;12.38;7.07;;;-2.40;99.90;;;;;;5066674;28;20041;-63
2024/01/29 02:35:53;;;;;;;11.60;7.93;;;-2.40;99.90;;;;;;5066753;28;20037;-63
2024/01/29 02:38:25;;;;;;;12.13;7.30;;;-2.40;99.90;;;;;;5053717;28;20048;-63
2024/01/29 02:40:57;;;;;;;12.00;7.63;;;-2.40;99.90;;;;;;5053985;28;20048;-63
2024/01/29 02:43:29;;;;;;;10.23;7.75;;;-2.40;99.90;;;;;;5051672;28;20048;-63
2024/01/29 02:46:01;;;;;;;9.27;6.93;;;-2.40;99.90;;;;;;5057358;28;20062;-63
2024/01/29 02:48:28;;;;;;;10.65;7.57;;;-2.40;99.90;;;;;;5059051;28;20136;-63
2024/01/29 02:50:59;;;;;;;11.85;7.47;;;-2.40;99.90;;;;;;5058867;28;20033;-63
2024/01/29 02:53:31;;;;;;;11.98;8.57;;;-2.40;99.90;;;;;;5063622;28;20041;-63
2024/01/29 02:56:03;;;;;;;11.63;7.82;;;-2.40;99.90;;;;;;5059951;28;20040;-63
2024/01/29 02:58:35;;;;;;;14.43;9.07;;;-2.40;99.90;;;;;;5065270;28;20051;-63
2024/01/29 03:01:07;;;;;;;10.02;7.63;;;-2.40;99.90;;;;;;5052781;28;20421;-64
2024/01/29 03:03:39;;;;;;;12.88;8.75;;;-2.40;99.90;;;;;;5059053;28;20463;-63
2024/01/29 03:06:11;;;;;;;12.68;8.23;;;-2.50;99.90;;;;;;5049426;28;20045;-63
2024/01/29 03:08:45;;;;;;;12.05;8.25;;;-2.50;99.90;;;;;;5054804;28;20135;-63
2024/01/29 03:11:16;;;;;;;14.77;10.07;;;-2.50;99.90;;;;;;5060305;28;20041;-63
2024/01/29 03:13:48;;;;;;;12.73;8.05;;;-2.50;99.90;;;;;;5068190;28;20102;-63
2024/01/29 03:16:15;;;;;;;12.27;8.13;;;-2.50;99.90;;;;;;5065033;28;20047;-63
2024/01/29 03:18:47;;;;;;;13.60;8.52;;;-2.50;99.90;;;;;;5059513;28;20075;-63
2024/01/29 03:21:19;;;;;;;12.77;8.07;;;-2.50;99.90;;;;;;5063495;28;20048;-63
2024/01/29 03:23:51;;;;;;;15.60;9.02;;;-2.60;99.90;;;;;;5059049;28;20041;-63
2024/01/29 03:26:23;;;;;;;13.05;8.52;;;-2.60;99.90;;;;;;5066478;28;20048;-63
2024/01/29 03:28:55;;;;;;;13.02;8.35;;;-2.60;99.90;;;;;;5063417;28;20048;-63
2024/01/29 03:31:27;;;;;;;9.45;7.55;;;-2.60;99.90;;;;;;5052545;28;20524;-63
2024/01/29 03:33:59;;;;;;;15.40;8.80;;;-2.60;99.90;;;;;;5052274;28;20421;-63
2024/01/29 03:36:31;;;;;;;15.40;8.23;;;-2.60;99.90;;;;;;5069237;28;20102;-63
2024/01/29 03:39:03;;;;;;;13.77;8.05;;;-2.60;99.90;;;;;;5054374;28;20068;-63
2024/01/29 03:41:35;;;;;;;10.15;8.35;;;-2.70;99.90;;;;;;5058692;28;20127;-63
2024/01/29 03:44:06;;;;;;;13.93;8.55;;;-2.70;99.90;;;;;;5061091;28;20037;-63
2024/01/29 03:46:38;;;;;;;14.52;9.93;;;-2.70;99.90;;;;;;5065028;28;20044;-63
2024/01/29 03:49:10;;;;;;;13.27;8.55;;;-2.60;99.90;;;;;;5062482;28;20056;-63
2024/01/29 03:51:42;;;;;;;12.05;9.25;;;-2.60;99.90;;;;;;5067394;28;20063;-63
2024/01/29 03:54:14;;;;;;;13.57;8.90;;;-2.60;99.90;;;;;;5049848;28;20054;-63
2024/01/29 03:56:45;;;;;;;13.20;8.13;;;-2.70;99.90;;;;;;5058467;28;20045;-63
2024/01/29 03:59:17;;;;;;;12.00;8.05;;;-2.70;99.90;;;;;;5056802;28;20052;-63
2024/01/29 04:01:49;;;;;;;14.68;8.15;;;-2.70;99.90;;;;;;5058152;28;20082;-63
2024/01/29 04:04:21;;;;;;;12.25;8.50;;;-2.70;99.90;;;;;;5070892;28;20131;-63
2024/01/29 04:06:53;;;;;;;12.15;8.57;;;-2.70;99.90;;;;;;5071276;28;20049;-63
2024/01/29 04:09:25;;;;;;;10.65;8.48;;;-2.70;99.90;;;;;;5067179;28;20520;-64
2024/01/29 04:11:56;;;;;;;13.73;8.65;;;-2.80;99.90;;;;;;5063770;28;20163;-63
2024/01/29 04:14:29;;;;;;;12.70;8.63;;;-2.80;99.90;;;;;;5067032;28;20405;-63
2024/01/29 04:17:05;;;;;;;11.40;7.85;;;-2.80;99.90;;;;;;5070240;28;20425;-63
2024/01/29 04:19:32;;;;;;;14.32;8.35;;;-2.80;99.90;;;;;;5070848;28;20041;-63
2024/01/29 04:22:05;;;;;;;10.88;7.35;;;-2.80;99.90;;;;;;5061780;28;20067;-63
2024/01/29 04:24:37;;;;;;;14.85;8.25;;;-2.80;99.90;;;;;;5076038;28;20050;-63
2024/01/29 04:27:09;;;;;;;13.45;8.07;;;-2.80;99.90;;;;;;5070293;28;20501;-63
2024/01/29 04:29:41;;;;;;;13.18;8.68;;;-2.80;99.90;;;;;;5059177;28;20091;-64
2024/01/29 04:32:12;;;;;;;12.75;7.95;;;-2.90;99.90;;;;;;5051479;28;20144;-63
2024/01/29 04:34:44;;;;;;;12.75;7.82;;;-2.90;99.90;;;;;;5057140;28;20588;-63
2024/01/29 04:37:16;;;;;;;12.65;7.65;;;-3.00;99.90;;;;;;5065074;28;20040;-63
2024/01/29 04:39:48;;;;;;;10.73;8.05;;;-2.90;99.90;;;;;;5065817;28;20436;-63
2024/01/29 04:42:20;;;;;;;12.00;7.70;;;-2.90;99.90;;;;;;5061866;28;20045;-63
2024/01/29 04:44:52;;;;;;;16.30;8.73;;;-3.00;99.90;;;;;;5067498;28;20102;-63
2024/01/29 04:47:23;;;;;;;11.73;8.10;;;-3.00;99.90;;;;;;5055680;28;20411;-63
2024/01/29 04:49:55;;;;;;;13.85;8.25;;;-3.00;99.90;;;;;;5064431;28;20714;-62
2024/01/29 04:52:27;;;;;;;16.05;9.43;;;-3.00;99.90;;;;;;5054511;28;20524;-63
2024/01/29 04:54:54;;;;;;;12.35;8.50;;;-3.00;99.90;;;;;;5056999;28;20037;-63
2024/01/29 04:57:22;;;;;;;14.32;8.35;;;-3.00;99.90;;;;;;5055791;28;20051;-64
2024/01/29 04:59:55;;;;;;;12.93;8.43;;;-2.60;99.90;;;;;;5056777;28;20052;-63
2024/01/29 05:02:22;;;;;;;13.93;8.20;;;-2.50;99.90;;;;;;5061930;28;20040;-63
2024/01/29 05:04:48;;;;;;;12.98;7.75;;;-2.60;99.90;;;;;;5061855;28;20387;-63
2024/01/29 05:07:20;;;;;;;13.93;9.05;;;-2.60;99.90;;;;;;5061783;28;20072;-63
2024/01/29 05:09:52;;;;;;;14.18;8.30;;;-2.70;99.90;;;;;;5062297;28;20045;-63
2024/01/29 05:12:25;;;;;;;11.45;7.38;;;-2.70;99.90;;;;;;5052075;28;20056;-63
2024/01/29 05:14:57;;;;;;;11.13;6.32;;;-2.80;99.90;;;;;;5061112;28;20045;-63
2024/01/29 05:17:28;;;;;;;10.35;7.72;;;-2.90;99.90;;;;;;5072971;28;20123;-63
2024/01/29 05:20:01;;;;;;;12.18;7.20;;;-2.90;99.90;;;;;;5060730;28;20043;-63
2024/01/29 05:22:33;;;;;;;11.93;7.32;;;-2.90;99.90;;;;;;5047649;28;20530;-62
2024/01/29 05:25:05;;;;;;;13.20;7.57;;;-3.00;99.90;;;;;;5063823;28;20048;-62
2024/01/29 05:27:32;;;;;;;13.15;7.88;;;-3.00;99.90;;;;;;5068072;28;20127;-62
2024/01/29 05:29:59;;;;;;;15.90;8.63;;;-3.00;99.90;;;;;;5061693;28;20028;-63
2024/01/29 05:32:30;;;;;;;12.18;8.60;;;-3.10;99.90;;;;;;5057856;28;20117;-63
2024/01/29 05:35:04;;;;;;;11.05;7.57;;;-3.10;99.90;;;;;;5062764;28;20294;-63
2024/01/29 05:37:36;;;;;;;12.93;8.55;;;-3.10;99.90;;;;;;5051487;28;20129;-63
2024/01/29 05:40:09;;;;;;;14.88;8.50;;;-3.10;99.90;;;;;;5061706;28;20051;-63
2024/01/29 05:42:42;;;;;;;14.38;8.90;;;-3.10;99.90;;;;;;5056324;28;20049;-63
2024/01/29 05:45:14;;;;;;;17.75;9.75;;;-3.10;99.90;;;;;;5056989;28;20085;-63
2024/01/29 05:47:46;;;;;;;13.13;7.95;;;-3.10;99.90;;;;;;5053523;28;20064;-63
2024/01/29 05:50:18;;;;;;;15.68;8.75;;;-3.10;99.90;;;;;;5048416;28;20041;-63
2024/01/29 05:52:50;;;;;;;13.88;8.50;;;-3.10;99.90;;;;;;5059166;28;20118;-62
2024/01/29 05:55:21;;;;;;;14.27;8.55;;;-3.00;99.90;;;;;;5061216;28;20049;-63
2024/01/29 05:57:49;;;;;;;13.52;9.07;;;-3.10;99.90;;;;;;5063986;28;20603;-63
2024/01/29 06:00:21;;;;;;;10.18;6.63;;;-3.10;99.90;;;;;;5060662;28;20139;-62
2024/01/29 06:02:53;;;;;;;15.13;8.77;;;-3.10;99.90;;;;;;5060966;28;20045;-63
2024/01/29 06:05:25;;;;;;;15.15;9.27;;;-3.10;99.90;;;;;;5039207;28;20457;-63
2024/01/29 06:07:54;;;;;;;16.45;9.90;;;-3.10;99.90;;;;;;5055006;28;20128;-63
2024/01/29 06:10:26;;;;;;;14.57;9.25;;;-3.10;99.90;;;;;;5057299;28;20033;-62
2024/01/29 06:12:58;;;;;;;12.52;8.70;;;-3.10;99.90;;;;;;5056359;28;20067;-63
2024/01/29 06:15:25;;;;;;;13.80;8.85;;;-3.10;99.90;;;;;;5057922;28;20037;-63
2024/01/29 06:17:52;;;;;;;15.15;9.60;;;-3.20;99.90;;;;;;5056526;28;20069;-63
2024/01/29 06:20:19;;;;;;;18.63;9.65;;;-3.20;99.90;;;;;;5050321;28;20109;-63
2024/01/29 06:22:51;;;;;;;17.70;10.25;;;-3.20;99.90;;;;;;5056623;28;20041;-63
2024/01/29 06:25:19;;;;;;;18.98;10.98;;;-3.20;99.90;;;;;;5056069;28;20417;-63
2024/01/29 06:27:46;;;;;;;18.88;12.25;;;-3.20;99.90;;;;;;5052767;28;20340;-63
2024/01/29 06:30:18;;;;;;;19.63;12.95;;;-3.20;99.90;;;;;;5059101;28;20040;-63
2024/01/29 06:32:50;;;;;;;20.70;13.13;;;-3.20;99.90;;;;;;5056260;28;20037;-63
2024/01/29 06:35:23;;;;;;;19.02;12.00;;;-3.20;99.90;;;;;;5055617;28;20045;-63
2024/01/29 06:37:55;;;;;;;22.38;13.70;;;-3.20;99.90;;;;;;5067129;28;20041;-63
2024/01/29 06:40:27;;;;;;;27.17;13.80;;;-3.20;99.90;;;;;;5070152;28;20037;-63
2024/01/29 06:42:59;;;;;;;21.88;13.68;;;-3.20;99.90;;;;;;5060661;28;20049;-62
2024/01/29 06:45:30;;;;;;;26.45;13.60;;;-3.20;99.90;;;;;;5065544;28;20048;-63
2024/01/29 06:48:05;;;;;;;21.70;12.80;;;-3.20;99.90;;;;;;5063300;28;20044;-63
2024/01/29 06:50:39;;;;;;;25.17;14.02;;;-3.20;99.90;;;;;;5062759;28;20036;-63
2024/01/29 06:53:11;;;;;;;25.50;15.20;;;-3.30;99.90;;;;;;5060593;28;20036;-63
2024/01/29 06:55:43;;;;;;;27.17;15.20;;;-3.30;99.90;;;;;;5066798;28;20076;-63
2024/01/29 06:58:17;;;;;;;27.50;15.07;;;-3.20;99.90;;;;;;5068515;28;20039;-63
2024/01/29 07:00:50;;;;;;;30.88;15.52;;;-3.20;99.90;;;;;;5050079;28;20060;-63
2024/01/29 07:03:22;;;;;;;24.85;13.10;;;-3.30;99.90;;;;;;5070748;28;20051;-63
2024/01/29 07:05:49;;;;;;;24.95;15.82;;;-3.30;99.90;;;;;;5071142;28;20044;-64
2024/01/29 07:08:21;;;;;;;26.85;15.55;;;-3.30;99.90;;;;;;5051978;28;20394;-63
2024/01/29 07:10:53;;;;;;;30.10;16.13;;;-3.20;99.90;;;;;;5065194;28;20029;-63
2024/01/29 07:13:25;;;;;;;23.42;14.40;;;-3.30;99.90;;;;;;5063644;28;20058;-63
2024/01/29 07:15:58;;;;;;;29.42;17.77;;;-3.20;99.90;;;;;;5061175;28;20052;-64
2024/01/29 07:18:30;;;;;;;25.02;15.90;;;-3.30;99.90;;;;;;5074220;28;20040;-63
2024/01/29 07:20:57;;;;;;;21.50;13.90;;;-3.20;99.90;;;;;;5057843;28;20072;-63
2024/01/29 07:23:29;;;;;;;29.17;16.40;;;-3.20;99.90;;;;;;5066917;28;20041;-63
2024/01/29 07:26:00;;;;;;;23.33;14.77;;;-3.20;99.90;;;;;;5069262;28;20074;-63
2024/01/29 07:28:32;;;;;;;23.95;16.30;;;-3.20;99.90;;;;;;5071563;28;20048;-64
2024/01/29 07:31:04;;;;;;;28.75;16.25;;;-3.10;99.90;;;;;;5062986;28;20045;-63
2024/01/29 07:33:36;;;;;;;28.13;16.10;;;-3.10;99.90;;;;;;5054791;28;20044;-64
2024/01/29 07:36:08;;;;;;;27.38;16.83;;;-3.10;99.90;;;;;;5040592;28;20073;-63
2024/01/29 07:38:40;;;;;;;27.25;17.45;;;-3.00;99.90;;;;;;5057699;28;20124;-63
2024/01/29 07:41:12;;;;;;;27.65;15.60;;;-3.00;99.90;;;;;;5057580;28;20048;-63
2024/01/29 07:43:44;;;;;;;29.88;17.70;;;-3.00;99.90;;;;;;5061978;28;20048;-62
2024/01/29 07:46:15;;;;;;;32.33;18.95;;;-3.00;99.90;;;;;;5064184;28;20102;-63
2024/01/29 07:48:47;;;;;;;37.55;21.38;;;-3.00;99.90;;;;;;5064851;28;20515;-63
2024/01/29 07:51:19;;;;;;;42.83;22.30;;;-3.00;99.90;;;;;;5067617;28;20492;-62
2024/01/29 07:53:51;;;;;;;39.83;21.13;;;-3.00;99.90;;;;;;5069451;28;20036;-63
2024/01/29 07:56:23;;;;;;;42.25;23.70;;;-3.00;99.90;;;;;;5064771;28;20115;-63
2024/01/29 07:58:55;;;;;;;52.20;22.90;;;-2.90;99.90;;;;;;5051982;28;20047;-63
2024/01/29 08:01:26;;;;;;;45.83;22.67;;;-2.90;99.90;;;;;;5051402;28;20048;-63
2024/01/29 08:04:01;;;;;;;41.58;21.40;;;-2.90;99.90;;;;;;5055624;28;20045;-63
2024/01/29 08:06:33;;;;;;;40.38;22.90;;;-2.80;99.90;;;;;;5065129;28;20524;-63
2024/01/29 08:09:05;;;;;;;37.17;23.77;;;-2.80;99.90;;;;;;5062293;28;20056;-63
2024/01/29 08:11:37;;;;;;;38.45;22.10;;;-2.80;99.90;;;;;;5033837;28;20039;-63
2024/01/29 08:14:08;;;;;;;33.03;20.35;;;-2.70;99.90;;;;;;5062091;28;20135;-63
2024/01/29 08:16:40;;;;;;;33.95;21.17;;;-2.70;99.90;;;;;;5061464;28;20114;-63
2024/01/29 08:19:12;;;;;;;32.75;19.88;;;-2.60;99.90;;;;;;5064710;28;20064;-63
2024/01/29 08:21:44;;;;;;;33.15;19.40;;;-2.60;99.90;;;;;;5049429;28;20103;-63
2024/01/29 08:24:16;;;;;;;33.50;20.50;;;-2.50;99.90;;;;;;5052488;28;20125;-63
2024/01/29 08:26:43;;;;;;;40.20;21.77;;;-2.40;99.90;;;;;;5055051;28;20049;-63
2024/01/29 08:29:15;;;;;;;36.05;20.88;;;-2.40;99.90;;;;;;5054379;28;20096;-63
2024/01/29 08:31:47;;;;;;;38.28;22.20;;;-2.30;99.90;;;;;;5059710;28;20037;-63
2024/01/29 08:34:19;;;;;;;35.75;21.45;;;-2.20;99.90;;;;;;5062392;28;20045;-63
2024/01/29 08:36:46;;;;;;;37.58;21.85;;;-2.10;99.90;;;;;;5063111;28;20090;-63
2024/01/29 08:39:17;;;;;;;39.40;22.63;;;-2.00;99.90;;;;;;5043346;28;20513;-63
2024/01/29 08:41:49;;;;;;;34.40;20.30;;;-1.90;99.90;;;;;;5068316;28;20045;-63
2024/01/29 08:44:21;;;;;;;28.20;17.98;;;-1.80;99.90;;;;;;5064345;28;20106;-63
2024/01/29 08:46:53;;;;;;;26.60;17.20;;;-1.70;99.90;;;;;;5069165;28;20041;-63
2024/01/29 08:49:21;;;;;;;26.30;17.02;;;-1.70;99.90;;;;;;5074178;28;20090;-63
2024/01/29 08:51:53;;;;;;;20.13;13.20;;;-1.60;99.90;;;;;;5067744;28;20037;-63
2024/01/29 08:54:24;;;;;;;20.23;13.80;;;-1.50;99.90;;;;;;5058188;28;20102;-63
2024/01/29 08:56:56;;;;;;;22.90;14.55;;;-1.50;99.90;;;;;;5057694;28;20041;-63
2024/01/29 08:59:31;;;;;;;19.20;13.93;;;-1.40;99.90;;;;;;5066878;28;20047;-63
2024/01/29 09:02:03;;;;;;;20.88;12.52;;;-1.30;99.90;;;;;;5064818;28;20037;-62
2024/01/29 09:04:30;;;;;;;24.33;13.38;;;-1.30;99.90;;;;;;5064727;28;20489;-63
2024/01/29 09:07:02;;;;;;;21.38;14.32;;;-1.20;99.90;;;;;;5051325;28;20100;-64
2024/01/29 09:09:34;;;;;;;31.02;16.00;;;-1.10;99.90;;;;;;5058791;28;20044;-64
2024/01/29 09:12:06;;;;;;;39.42;23.80;;;-1.00;99.90;;;;;;5057674;28;20051;-64
2024/01/29 09:14:33;;;;;;;42.15;25.35;;;-0.90;99.90;;;;;;5056812;28;20084;-64
2024/01/29 09:17:05;;;;;;;41.55;26.13;;;-0.80;99.90;;;;;;5060250;28;20100;-64
2024/01/29 09:19:37;;;;;;;40.97;25.00;;;-0.70;99.90;;;;;;5052293;28;20034;-64
2024/01/29 09:22:09;;;;;;;35.80;22.20;;;-0.60;99.90;;;;;;5058113;28;20041;-64
2024/01/29 09:24:41;;;;;;;34.53;22.52;;;-0.50;99.90;;;;;;5060662;28;20525;-64
2024/01/29 09:27:13;;;;;;;34.55;18.98;;;-0.50;99.90;;;;;;5061735;28;20045;-64
2024/01/29 09:29:45;;;;;;;34.90;18.05;;;-0.40;99.90;;;;;;5061105;28;20056;-64
2024/01/29 09:32:16;;;;;;;27.38;18.33;;;-0.30;99.90;;;;;;5062689;28;20040;-64
2024/01/29 09:34:48;;;;;;;27.95;18.15;;;-0.30;99.90;;;;;;5052356;28;20131;-64
2024/01/29 09:37:20;;;;;;;28.55;17.77;;;-0.20;99.90;;;;;;5058056;28;20072;-64
2024/01/29 09:39:47;;;;;;;30.70;18.13;;;-0.10;99.90;;;;;;5056781;28;20033;-62
2024/01/29 09:42:24;;;;;;;26.67;17.70;;;0.00;99.90;;;;;;5070592;28;20048;-64
2024/01/29 09:44:54;;;;;;;31.23;18.38;;;0.10;99.90;;;;;;5057624;28;20437;-63
2024/01/29 09:47:21;;;;;;;27.77;18.58;;;0.20;99.90;;;;;;5058501;28;20044;-64
2024/01/29 09:49:54;;;;;;;26.38;17.77;;;0.20;99.90;;;;;;5061010;28;20045;-63
2024/01/29 09:52:27;;;;;;;24.20;16.35;;;0.30;99.90;;;;;;5058431;28;20549;-63
2024/01/29 09:54:59;;;;;;;27.35;18.58;;;0.40;99.90;;;;;;5062670;28;20528;-63
2024/01/29 09:57:32;;;;;;;25.55;15.82;;;0.40;99.90;;;;;;5064493;28;20497;-63
2024/01/29 10:00:05;;;;;;;23.52;16.33;;;0.50;99.90;;;;;;5062598;28;20047;-63
2024/01/29 10:02:38;;;;;;;26.43;17.03;;;0.60;99.90;;;;;;5070551;28;20051;-63
2024/01/29 10:05:09;;;;;;;26.23;15.93;;;0.60;99.90;;;;;;5057711;28;20534;-63
2024/01/29 10:07:42;;;;;;;30.17;22.75;;;0.70;99.90;;;;;;5053534;28;20080;-63
2024/01/29 10:10:14;;;;;;;29.05;19.65;;;0.80;99.90;;;;;;5060619;28;20043;-64
2024/01/29 10:12:46;;;;;;;27.95;17.60;;;1.00;99.90;;;;;;5056642;28;20056;-63
2024/01/29 10:15:18;;;;;;;27.55;17.20;;;1.00;99.90;;;;;;5060160;28;20041;-64
2024/01/29 10:17:50;;;;;;;24.92;16.90;;;1.10;99.90;;;;;;5064979;28;20113;-63
2024/01/29 10:20:22;;;;;;;22.02;14.73;;;1.20;99.90;;;;;;5058788;28;20040;-64
2024/01/29 10:23:01;;;;;;;20.88;14.68;;;1.30;99.90;;;;;;5061103;28;20505;-64
2024/01/29 10:25:34;;;;;;;22.48;15.75;;;1.30;99.90;;;;;;5060897;28;20051;-64
2024/01/29 10:28:13;;;;;;;21.42;14.15;;;1.40;99.90;;;;;;5063903;28;20118;-63
2024/01/29 10:30:45;;;;;;;21.27;13.82;;;1.50;99.90;;;;;;5055013;28;20044;-64
2024/01/29 10:33:17;;;;;;;22.08;14.40;;;1.60;99.90;;;;;;5053158;28;20418;-64
2024/01/29 10:35:49;;;;;;;22.23;13.82;;;1.60;99.90;;;;;;5055997;28;20132;-64
2024/01/29 10:38:22;;;;;;;21.65;13.32;;;1.70;99.90;;;;;;5055317;28;20123;-64
2024/01/29 10:40:58;;;;;;;25.20;14.82;;;1.80;99.90;;;;;;5060278;28;20089;-64
2024/01/29 10:43:37;;;;;;;23.55;13.55;;;1.90;99.90;;;;;;5062074;28;20411;-64
2024/01/29 10:46:11;;;;;;;25.05;14.98;;;2.00;99.90;;;;;;5060472;28;20032;-64
2024/01/29 10:48:44;;;;;;;22.38;14.40;;;2.10;99.90;;;;;;5059574;28;20037;-64
2024/01/29 10:51:17;;;;;;;25.13;13.83;;;2.10;99.90;;;;;;5059434;28;20044;-64
2024/01/29 10:53:47;;;;;;;19.52;12.10;;;2.20;99.90;;;;;;5055777;28;20051;-65
2024/01/29 10:56:16;;;;;;;15.50;10.90;;;2.40;99.90;;;;;;5052603;28;20051;-64
2024/01/29 10:58:55;;;;;;;13.05;9.50;;;2.50;99.90;;;;;;5053774;28;20065;-64
2024/01/29 11:01:28;;;;;;;15.80;10.70;;;2.60;99.90;;;;;;5053506;28;20041;-64
2024/01/29 11:03:58;;;;;;;15.52;10.05;;;2.70;99.90;;;;;;5056784;28;20573;-64
2024/01/29 11:06:38;;;;;;;13.25;9.57;;;2.80;99.90;;;;;;5064191;28;20051;-64
2024/01/29 11:09:12;;;;;;;12.68;9.10;;;2.90;99.90;;;;;;5059490;28;20044;-64
2024/01/29 11:11:46;;;;;;;11.80;8.23;;;3.00;99.90;;;;;;5060655;28;20186;-64
2024/01/29 11:14:24;;;;;;;9.93;6.80;;;3.10;99.90;;;;;;5059058;28;20052;-64
2024/01/29 11:16:52;;;;;;;8.65;6.22;;;3.20;99.90;;;;;;5047145;28;20048;-64
2024/01/29 11:19:26;;;;;;;8.82;6.20;;;3.30;99.90;;;;;;5056796;28;20116;-65
2024/01/29 11:21:58;;;;;;;7.68;5.68;;;3.40;99.90;;;;;;5053995;28;20063;-65
2024/01/29 11:24:26;;;;;;;9.32;6.47;;;3.50;99.90;;;;;;5059142;28;20041;-64
2024/01/29 11:27:08;;;;;;;11.15;7.18;;;3.50;99.90;;;;;;5050586;28;20068;-65
2024/01/29 11:29:44;;;;;;;11.63;8.13;;;3.60;99.90;;;;;;5039935;28;20535;-65
2024/01/29 11:32:13;;;;;;;10.65;7.57;;;3.80;99.90;;;;;;5055131;28;20073;-65
2024/01/29 11:34:45;;;;;;;9.63;6.88;;;3.90;99.90;;;;;;5056727;28;20041;-65
2024/01/29 11:37:28;;;;;;;9.68;6.75;;;4.00;99.90;;;;;;5061931;28;20040;-64
2024/01/29 11:40:00;;;;;;;12.52;8.02;;;4.10;99.90;;;;;;5058750;28;20614;-65
2024/01/29 11:42:27;;;;;;;10.85;8.35;;;4.30;99.90;;;;;;5061429;28;20505;-64
2024/01/29 11:44:59;;;;;;;10.25;7.32;;;4.40;99.90;;;;;;5055382;28;20056;-64
2024/01/29 11:47:26;;;;;;;9.85;7.85;;;4.50;99.90;;;;;;5062808;28;20055;-65
2024/01/29 11:49:58;;;;;;;10.68;8.13;;;4.60;99.90;;;;;;5056539;28;20051;-65
2024/01/29 11:52:30;;;;;;;10.88;8.07;;;4.80;99.90;;;;;;5051837;28;20045;-64
2024/01/29 11:54:59;;;;;;;13.10;9.13;;;4.90;99.90;;;;;;5055416;28;20076;-63
2024/01/29 11:57:32;;;;;;;12.63;9.43;;;5.00;99.90;;;;;;5052164;28;20057;-64
2024/01/29 12:00:07;;;;;;;14.15;10.35;;;5.10;99.90;;;;;;5056405;28;20032;-65
2024/01/29 12:02:39;;;;;;;14.93;9.45;;;5.20;99.90;;;;;;5065384;28;20049;-64
2024/01/29 12:05:16;;;;;;;15.68;11.35;;;5.30;99.90;;;;;;5057214;28;20068;-65
2024/01/29 12:07:48;;;;;;;13.63;11.10;;;5.40;99.90;;;;;;5061611;28;20059;-65
2024/01/29 12:10:20;;;;;;;17.10;10.82;;;5.50;99.90;;;;;;5063027;28;20037;-64
2024/01/29 12:12:52;;;;;;;16.45;10.40;;;5.60;99.90;;;;;;5065930;28;20047;-65
2024/01/29 12:15:24;;;;;;;14.43;11.25;;;5.80;99.90;;;;;;5059193;28;20106;-65
2024/01/29 12:17:56;;;;;;;16.05;10.93;;;5.90;99.90;;;;;;5054473;28;20041;-65
2024/01/29 12:20:28;;;;;;;17.70;11.25;;;6.00;99.90;;;;;;5053970;28;20041;-65
2024/01/29 12:23:00;;;;;;;14.15;9.90;;;6.10;99.90;;;;;;5053337;28;20420;-65
2024/01/29 12:25:33;;;;;;;17.88;10.63;;;6.20;99.90;;;;;;5063899;28;20052;-65
2024/01/29 12:28:09;;;;;;;18.25;12.45;;;6.30;99.90;;;;;;5058258;28;20047;-64
2024/01/29 12:30:37;;;;;;;19.40;12.90;;;6.40;99.90;;;;;;5065023;28;20600;-65
2024/01/29 12:33:20;;;;;;;23.95;16.77;;;6.50;99.90;;;;;;5064003;28;20068;-65
2024/01/29 12:35:53;;;;;;;46.38;29.27;;;6.50;99.90;;;;;;5061280;28;20501;-65
2024/01/29 12:38:25;;;;;;;41.38;28.80;;;6.60;99.90;;;;;;5061681;28;20102;-64
2024/01/29 12:40:57;;;;;;;45.22;31.63;;;6.70;99.90;;;;;;5055423;28;20040;-65
2024/01/29 12:43:29;;;;;;;24.08;18.50;;;6.80;99.90;;;;;;5064113;28;20044;-63
2024/01/29 12:46:14;;;;;;;22.67;15.73;;;6.90;99.90;;;;;;5063662;28;20050;-64
2024/01/29 12:48:46;;;;;;;21.77;14.10;;;7.10;99.90;;;;;;5050621;28;20040;-65
2024/01/29 12:51:18;;;;;;;15.30;11.43;;;7.20;99.90;;;;;;5058836;28;20116;-65
2024/01/29 12:53:56;;;;;;;16.88;10.55;;;7.30;99.90;;;;;;5055977;28;20037;-65
2024/01/29 12:56:30;;;;;;;16.55;11.38;;;7.50;99.90;;;;;;5059331;28;20037;-64
2024/01/29 12:59:06;;;;;;;15.57;11.60;;;7.70;99.90;;;;;;5060258;28;20088;-65